Time;durP1;ratioP1;P1;durP2;ratioP2;P2;SDS_P1;SDS_P2;PMS_P1;PMS_P2;Temp;Humidity;BMP_temperature;BMP_pressure;BME280_temperature;BME280_humidity;BME280_pressure;Samples;Min_cycle;Max_cycle;Signal;HPM_P1;HPM_P2
2023/07/08 00:01:32;;;;;;;6.78;5.25;;;;;;;13.96;100.00;98910.66;4166749;28;20081;-73
2023/07/08 00:03:32;;;;;;;7.43;5.30;;;;;;;13.90;100.00;98906.69;4156300;28;20128;-72
2023/07/08 00:05:32;;;;;;;7.97;5.07;;;;;;;13.84;100.00;98907.44;4157405;28;20149;-72
2023/07/08 00:07:33;;;;;;;6.22;5.07;;;;;;;13.83;100.00;98911.41;4159786;28;20048;-72
2023/07/08 00:09:33;;;;;;;6.93;5.25;;;;;;;13.78;100.00;98905.00;4155669;28;20306;-72
2023/07/08 00:11:33;;;;;;;6.35;5.30;;;;;;;13.80;100.00;98901.03;4168640;28;20124;-72
2023/07/08 00:13:34;;;;;;;6.47;5.00;;;;;;;13.76;100.00;98889.91;4168048;28;20069;-72
2023/07/08 00:15:36;;;;;;;6.22;5.63;;;;;;;13.70;100.00;98892.25;4158967;28;20128;-72
2023/07/08 00:17:36;;;;;;;6.00;4.90;;;;;;;13.65;100.00;98891.81;4170818;28;20049;-72
2023/07/08 00:19:36;;;;;;;7.07;5.18;;;;;;;13.60;100.00;98895.78;4168971;28;20068;-72
2023/07/08 00:21:37;;;;;;;10.20;5.43;;;;;;;13.56;100.00;98889.38;4159412;28;20046;-72
2023/07/08 00:23:37;;;;;;;7.15;5.15;;;;;;;13.53;100.00;98892.16;4158231;28;20440;-72
2023/07/08 00:25:38;;;;;;;6.88;5.30;;;;;;;13.44;100.00;98878.59;4159205;28;20087;-72
2023/07/08 00:27:38;;;;;;;6.60;4.97;;;;;;;13.37;100.00;98881.34;4158332;28;20356;-72
2023/07/08 00:29:39;;;;;;;8.95;5.53;;;;;;;13.32;100.00;98884.47;4164456;28;20049;-72
2023/07/08 00:31:39;;;;;;;9.00;5.60;;;;;;;13.35;100.00;98883.72;4170767;28;20040;-72
2023/07/08 00:33:39;;;;;;;9.00;5.13;;;;;;;13.29;100.00;98885.25;4169889;28;20033;-72
2023/07/08 00:35:41;;;;;;;7.93;5.10;;;;;;;13.20;100.00;98889.16;4164398;28;20080;-72
2023/07/08 00:37:42;;;;;;;6.25;4.97;;;;;;;13.17;100.00;98891.88;4156206;28;20132;-72
2023/07/08 00:39:42;;;;;;;7.28;5.03;;;;;;;13.11;100.00;98891.44;4156635;28;20048;-72
2023/07/08 00:41:43;;;;;;;8.07;5.78;;;;;;;13.10;100.00;98889.84;4156863;28;20052;-72
2023/07/08 00:43:57;;;;;;;10.88;5.50;;;;;;;13.06;100.00;98899.31;4164630;28;20048;-72
2023/07/08 00:46:17;;;;;;;7.88;5.90;;;;;;;13.02;100.00;98898.50;4164390;28;20402;-72
2023/07/08 00:48:23;;;;;;;7.38;5.60;;;;;;;12.98;100.00;98903.22;4161806;28;20041;-72
2023/07/08 00:50:23;;;;;;;12.13;5.35;;;;;;;12.96;100.00;98898.06;4167795;28;20762;-72
2023/07/08 00:52:27;;;;;;;8.27;5.75;;;;;;;12.94;100.00;98890.13;4170149;28;20029;-72
2023/07/08 00:54:27;;;;;;;6.22;5.32;;;;;;;12.91;100.00;98893.66;4165908;28;20553;-72
2023/07/08 00:57:00;;;;;;;8.10;5.38;;;;;;;12.89;100.00;98890.44;4168421;28;20069;-72
2023/07/08 00:59:09;;;;;;;8.55;5.82;;;;;;;12.91;100.00;98896.44;4155788;28;20530;-72
2023/07/08 01:01:11;;;;;;;5.95;5.00;;;;;;;12.92;100.00;98900.03;4167040;28;20432;-72
2023/07/08 01:03:11;;;;;;;6.43;4.93;;;;;;;12.85;100.00;98905.50;4160885;28;20045;-72
2023/07/08 01:05:18;;;;;;;7.13;5.13;;;;;;;12.82;100.00;98895.94;4166318;28;20064;-72
2023/07/08 01:07:21;;;;;;;9.95;5.75;;;;;;;12.80;100.00;98894.72;4158075;28;20192;-72
2023/07/08 01:09:21;;;;;;;7.82;5.53;;;;;;;12.78;100.00;98903.44;4156662;28;20068;-72
2023/07/08 01:11:22;;;;;;;9.10;5.35;;;;;;;12.77;100.00;98901.06;4156548;28;20033;-72
2023/07/08 01:13:22;;;;;;;7.97;5.90;;;;;;;12.67;100.00;98891.47;4154475;28;20505;-72
2023/07/08 01:15:29;;;;;;;8.18;5.40;;;;;;;12.56;100.00;98899.66;4160637;28;20154;-72
2023/07/08 01:17:33;;;;;;;6.38;5.05;;;;;;;12.48;100.00;98894.41;4157409;28;20536;-72
2023/07/08 01:19:33;;;;;;;7.22;5.72;;;;;;;12.42;100.00;98891.22;4169566;28;20041;-72
2023/07/08 01:21:46;;;;;;;7.57;5.45;;;;;;;12.37;100.00;98891.53;4174278;28;20056;-72
2023/07/08 01:23:46;;;;;;;10.88;5.38;;;;;;;12.32;100.00;98884.34;4166946;28;20037;-72
2023/07/08 01:25:47;;;;;;;5.03;4.50;;;;;;;12.31;100.00;98879.97;4160642;28;20691;-72
2023/07/08 01:27:51;;;;;;;7.80;5.13;;;;;;;12.34;100.00;98884.78;4159783;28;20064;-72
2023/07/08 01:29:53;;;;;;;7.78;5.72;;;;;;;12.34;100.00;98886.75;4159472;28;20072;-72
2023/07/08 01:31:55;;;;;;;6.95;5.60;;;;;;;12.29;100.00;98892.63;4159383;28;20041;-72
2023/07/08 01:33:56;;;;;;;6.82;5.05;;;;;;;12.24;100.00;98892.97;4159803;28;20037;-72
2023/07/08 01:35:56;;;;;;;9.77;5.40;;;;;;;12.17;100.00;98893.69;4164497;28;20057;-72
2023/07/08 01:38:00;;;;;;;8.13;5.47;;;;;;;12.12;100.00;98880.16;4164307;28;20025;-72
2023/07/08 01:40:19;;;;;;;8.30;5.78;;;;;;;12.07;100.00;98889.59;4159464;28;20128;-72
2023/07/08 01:42:19;;;;;;;7.47;5.43;;;;;;;12.07;100.00;98881.28;4159412;28;20053;-72
2023/07/08 01:44:36;;;;;;;12.05;6.75;;;;;;;12.05;100.00;98883.63;4167163;28;20040;-72
2023/07/08 01:46:36;;;;;;;11.48;5.82;;;;;;;11.99;100.00;98873.25;4159489;28;20481;-72
2023/07/08 01:48:42;;;;;;;9.68;6.03;;;;;;;11.96;100.00;98876.78;4159117;28;20037;-72
2023/07/08 01:51:04;;;;;;;7.30;5.80;;;;;;;11.91;100.00;98879.88;4158988;28;20034;-72
2023/07/08 01:53:21;;;;;;;7.28;5.43;;;;;;;11.93;100.00;98878.34;4158118;28;20091;-72
2023/07/08 01:55:23;;;;;;;7.90;5.97;;;;;;;11.96;100.00;98874.81;4165778;28;20131;-72
2023/07/08 01:57:24;;;;;;;;;;;;;;;11.97;100.00;98872.84;4164646;28;20037;-72
2023/07/08 01:59:25;;;;;;;7.57;5.73;;;;;;;11.94;100.00;98868.84;4166349;28;19917;-72
2023/07/08 02:01:25;;;;;;;10.07;5.60;;;;;;;11.95;100.00;98864.91;4158851;28;20272;-72
2023/07/08 02:03:26;;;;;;;6.97;5.72;;;;;;;11.95;100.00;98864.91;4158958;28;20037;-72
2023/07/08 02:05:27;;;;;;;7.20;5.75;;;;;;;11.88;100.00;98862.03;4163272;28;20037;-72
2023/07/08 02:07:27;;;;;;;8.85;5.80;;;;;;;11.80;100.00;98863.13;4167873;28;20055;-72
2023/07/08 02:09:30;;;;;;;10.18;5.95;;;;;;;11.72;100.00;98878.03;4168721;28;20418;-72
2023/07/08 02:11:30;;;;;;;7.85;5.43;;;;;;;11.74;100.00;98873.72;4163758;28;20505;-72
2023/07/08 02:13:31;;;;;;;6.82;5.15;;;;;;;11.73;100.00;98869.34;4163275;28;20038;-72
2023/07/08 02:15:32;;;;;;;6.45;5.40;;;;;;;11.68;100.00;98868.91;4163188;28;20052;-72
2023/07/08 02:17:32;;;;;;;6.93;5.75;;;;;;;11.66;100.00;98874.00;4164587;28;20044;-72
2023/07/08 02:19:33;;;;;;;7.05;5.10;;;;;;;11.61;100.00;98869.59;4164130;28;20042;-72
2023/07/08 02:21:33;;;;;;;8.05;6.28;;;;;;;11.54;100.00;98875.81;4163097;28;20117;-72
2023/07/08 02:23:33;;;;;;;12.02;5.63;;;;;;;11.50;100.00;98872.22;4161122;28;20130;-72
2023/07/08 02:25:34;;;;;;;19.48;9.77;;;;;;;11.45;100.00;98868.97;4158331;28;20048;-72
2023/07/08 02:27:35;;;;;;;25.40;11.40;;;;;;;11.46;100.00;98865.03;4158638;28;20042;-72
2023/07/08 02:29:37;;;;;;;17.92;9.85;;;;;;;11.42;100.00;98873.28;4158620;28;20037;-72
2023/07/08 02:31:38;;;;;;;17.52;8.77;;;;;;;11.44;100.00;98879.25;4157796;28;20045;-72
2023/07/08 02:33:38;;;;;;;15.27;9.07;;;;;;;11.41;100.00;98868.09;4158963;28;20447;-72
2023/07/08 02:35:38;;;;;;;16.52;8.57;;;;;;;11.36;100.00;98865.69;4172433;28;20055;-72
2023/07/08 02:37:39;;;;;;;13.65;7.55;;;;;;;11.31;100.00;98869.56;4173782;28;20417;-72
2023/07/08 02:39:39;;;;;;;11.50;7.63;;;;;;;11.27;100.00;98874.25;4172843;28;20053;-71
2023/07/08 02:41:39;;;;;;;13.52;6.40;;;;;;;11.22;100.00;98872.59;4173770;28;20465;-72
2023/07/08 02:43:39;;;;;;;9.30;6.75;;;;;;;11.22;100.00;98867.06;4163325;28;20038;-72
2023/07/08 02:45:40;;;;;;;11.18;6.43;;;;;;;11.20;100.00;98876.91;4168200;28;20069;-72
2023/07/08 02:47:40;;;;;;;11.68;6.07;;;;;;;11.14;100.00;98870.88;4170380;28;20110;-72
2023/07/08 02:49:40;;;;;;;12.38;6.70;;;;;;;11.09;100.00;98875.94;4160453;28;20033;-72
2023/07/08 02:51:41;;;;;;;7.97;6.00;;;;;;;11.06;100.00;98880.25;4168602;28;20125;-72
2023/07/08 02:53:41;;;;;;;9.45;5.60;;;;;;;11.04;100.00;98876.25;4159449;28;20528;-72
2023/07/08 02:55:42;;;;;;;6.80;5.75;;;;;;;11.00;100.00;98867.88;4172299;28;20037;-72
2023/07/08 02:57:42;;;;;;;10.05;6.05;;;;;;;11.00;100.00;98869.84;4172887;28;20128;-72
2023/07/08 02:59:42;;;;;;;6.55;5.75;;;;;;;10.99;100.00;98880.13;4173988;28;20127;-72
2023/07/08 03:01:43;;;;;;;12.02;6.10;;;;;;;10.96;100.00;98881.69;4167028;28;20116;-72
2023/07/08 03:03:44;;;;;;;6.93;5.85;;;;;;;10.91;100.00;98878.41;4158686;28;20038;-71
2023/07/08 03:05:54;;;;;;;8.52;6.07;;;;;;;10.88;100.00;98890.25;4169873;28;20533;-72
2023/07/08 03:07:54;;;;;;;10.02;5.75;;;;;;;10.84;100.00;98875.53;4158076;28;20500;-72
2023/07/08 03:09:54;;;;;;;7.97;5.45;;;;;;;10.83;100.00;98885.00;4170848;28;20033;-72
2023/07/08 03:11:55;;;;;;;6.93;5.88;;;;;;;10.81;100.00;98876.28;4172420;28;20033;-72
2023/07/08 03:13:55;;;;;;;7.78;5.90;;;;;;;10.78;100.00;98874.25;4168298;28;20049;-72
2023/07/08 03:15:56;;;;;;;8.30;6.10;;;;;;;10.79;100.00;98876.66;4157570;28;20507;-72
2023/07/08 03:17:57;;;;;;;12.55;7.93;;;;;;;10.85;100.00;98879.91;4157725;28;20049;-72
2023/07/08 03:19:57;;;;;;;19.90;9.77;;;;;;;10.85;100.00;98872.41;4171913;28;20074;-72
2023/07/08 03:21:58;;;;;;;20.60;9.68;;;;;;;10.82;100.00;98875.91;4158207;28;20541;-72
2023/07/08 03:23:59;;;;;;;16.52;9.35;;;;;;;10.80;100.00;98874.69;4161395;28;20167;-72
2023/07/08 03:25:59;;;;;;;19.40;9.27;;;;;;;10.75;100.00;98883.28;4171249;28;20135;-72
2023/07/08 03:27:59;;;;;;;16.75;9.13;;;;;;;10.72;100.00;98875.72;4173063;28;20146;-72
2023/07/08 03:30:00;;;;;;;17.40;8.77;;;;;;;10.72;100.00;98887.59;4166033;28;20042;-71
2023/07/08 03:32:00;;;;;;;18.95;8.82;;;;;;;10.71;100.00;98879.66;4157197;28;20069;-71
2023/07/08 03:34:00;;;;;;;14.68;8.18;;;;;;;10.70;100.00;98876.09;4165605;28;20350;-71
2023/07/08 03:36:02;;;;;;;14.52;8.45;;;;;;;10.76;100.00;98879.34;4163655;28;20656;-71
2023/07/08 03:38:02;;;;;;;17.58;7.65;;;;;;;10.90;100.00;98890.66;4157458;28;20374;-72
2023/07/08 03:40:03;;;;;;;12.88;7.97;;;;;;;10.95;100.00;98882.84;4157449;28;20033;-72
2023/07/08 03:42:04;;;;;;;14.38;7.43;;;;;;;10.98;100.00;98882.09;4165948;28;20094;-71
2023/07/08 03:44:04;;;;;;;10.38;6.70;;;;;;;10.95;100.00;98879.28;4169373;28;20079;-72
2023/07/08 03:46:05;;;;;;;12.77;7.00;;;;;;;10.87;100.00;98888.66;4167717;28;20043;-71
2023/07/08 03:48:05;;;;;;;12.63;7.05;;;;;;;10.85;100.00;98888.22;4173015;28;20037;-72
2023/07/08 03:50:14;;;;;;;9.00;6.57;;;;;;;10.80;100.00;98883.78;4162726;28;20111;-72
2023/07/08 03:52:16;;;;;;;10.95;7.75;;;;;;;10.83;100.00;98887.78;4158054;28;20029;-72
2023/07/08 03:54:18;;;;;;;10.18;8.10;;;;;;;10.84;100.00;98890.19;4161868;28;20065;-72
2023/07/08 03:56:18;;;;;;;7.55;6.35;;;;;;;10.85;100.00;98893.75;4164704;28;20637;-72
2023/07/08 03:58:18;;;;;;;9.25;5.93;;;;;;;10.89;100.00;98902.91;4168420;28;20032;-72
2023/07/08 04:00:19;;;;;;;8.95;6.63;;;;;;;10.92;100.00;98893.84;4162636;28;20459;-72
2023/07/08 04:02:19;;;;;;;12.65;6.82;;;;;;;10.98;100.00;98900.69;4163893;28;20107;-72
2023/07/08 04:04:20;;;;;;;17.70;6.60;;;;;;;11.09;100.00;98901.69;4166726;28;20044;-71
2023/07/08 04:06:21;;;;;;;9.85;6.32;;;;;;;11.23;100.00;98907.41;4171203;28;20052;-72
2023/07/08 04:08:21;;;;;;;13.68;6.82;;;;;;;11.36;100.00;98907.22;4158986;28;20048;-72
2023/07/08 04:10:22;;;;;;;11.02;6.90;;;;;;;11.45;100.00;98900.25;4157441;28;20038;-72
2023/07/08 04:12:22;;;;;;;9.18;6.30;;;;;;;11.52;100.00;98905.09;4157073;28;20392;-72
2023/07/08 04:14:22;;;;;;;14.27;7.13;;;;;;;11.58;100.00;98905.56;4158457;28;20179;-72
2023/07/08 04:16:30;;;;;;;8.85;6.35;;;;;;;11.61;100.00;98899.28;4162961;28;20095;-71
2023/07/08 04:18:30;;;;;;;13.00;7.57;;;;;;;11.68;100.00;98905.72;4162483;28;20524;-71
2023/07/08 04:20:30;;;;;;;7.55;6.20;;;;;;;11.75;100.00;98905.00;4165408;28;20048;-72
2023/07/08 04:22:31;;;;;;;10.35;6.90;;;;;;;11.82;100.00;98911.47;4166611;28;20398;-72
2023/07/08 04:24:31;;;;;;;10.05;6.38;;;;;;;11.90;100.00;98908.78;4157257;28;20041;-71
2023/07/08 04:26:35;;;;;;;10.73;6.38;;;;;;;11.98;100.00;98914.06;4156094;28;20045;-72
2023/07/08 04:28:36;;;;;;;9.32;6.82;;;;;;;12.14;100.00;98915.84;4167906;28;20055;-71
2023/07/08 04:30:40;;;;;;;10.20;6.75;;;;;;;12.22;100.00;98915.53;4164421;28;20034;-72
2023/07/08 04:32:41;;;;;;;12.23;7.18;;;;;;;12.31;100.00;98913.25;4159291;28;20120;-71
2023/07/08 04:34:41;;;;;;;7.85;6.60;;;;;;;12.40;100.00;98912.16;4163370;28;20073;-72
2023/07/08 04:36:42;;;;;;;12.82;6.78;;;;;;;12.48;100.00;98911.06;4156925;28;20519;-72
2023/07/08 04:38:46;;;;;;;11.75;6.50;;;;;;;12.55;100.00;98908.38;4156784;28;20073;-72
2023/07/08 04:40:47;;;;;;;9.80;6.18;;;;;;;12.63;100.00;98910.03;4166817;28;20041;-71
2023/07/08 04:42:49;;;;;;;9.40;6.85;;;;;;;12.69;100.00;98905.75;4154878;28;20053;-72
2023/07/08 04:44:49;;;;;;;8.63;6.30;;;;;;;12.70;100.00;98899.00;4159425;28;20077;-72
2023/07/08 04:46:53;;;;;;;13.60;7.43;;;;;;;12.77;100.00;98901.84;4163215;28;20095;-72
2023/07/08 04:48:55;;;;;;;11.10;7.05;;;;;;;12.77;100.00;98903.84;4164544;28;20071;-72
2023/07/08 04:50:57;;;;;;;9.45;6.68;;;;;;;12.77;100.00;98903.84;4156670;28;20123;-72
2023/07/08 04:52:57;;;;;;;12.68;7.95;;;;;;;12.78;100.00;98908.22;4162030;28;20488;-72
2023/07/08 04:54:58;;;;;;;14.25;6.53;;;;;;;12.79;100.00;98910.59;4169332;28;20163;-71
2023/07/08 04:56:58;;;;;;;13.70;6.70;;;;;;;12.83;100.00;98902.31;4169633;28;20191;-72
2023/07/08 04:58:59;;;;;;;9.07;6.53;;;;;;;12.84;100.00;98915.81;4168947;28;20485;-72
2023/07/08 05:00:59;;;;;;;8.05;6.20;;;;;;;12.92;100.00;98906.38;4171876;28;20075;-72
2023/07/08 05:02:59;;;;;;;11.18;7.28;;;;;;;13.02;100.00;98902.09;4169461;28;20358;-72
2023/07/08 05:05:00;;;;;;;12.93;7.20;;;;;;;13.02;100.00;98904.06;4166084;28;20037;-72
2023/07/08 05:07:01;;;;;;;13.20;6.45;;;;;;;13.09;100.00;98915.25;4160261;28;20493;-72
2023/07/08 05:09:02;;;;;;;9.50;6.95;;;;;;;13.14;100.00;98903.75;4168751;28;20050;-72
2023/07/08 05:11:03;;;;;;;12.07;6.35;;;;;;;13.16;100.00;98912.53;4171554;28;20045;-72
2023/07/08 05:13:04;;;;;;;9.93;6.25;;;;;;;13.18;100.00;98910.16;4166782;28;20135;-72
2023/07/08 05:15:05;;;;;;;10.13;6.68;;;;;;;13.17;100.00;98914.91;4166926;28;20134;-72
2023/07/08 05:17:06;;;;;;;8.48;5.80;;;;;;;13.20;100.00;98928.06;4170203;28;20033;-72
2023/07/08 05:19:06;;;;;;;12.70;6.80;;;;;;;13.25;100.00;98937.22;4167839;28;20033;-71
2023/07/08 05:21:07;;;;;;;17.02;7.25;;;;;;;13.26;100.00;98911.03;4156508;28;20697;-72
2023/07/08 05:23:08;;;;;;;12.63;6.32;;;;;;;13.21;100.00;98918.53;4165273;28;20045;-72
2023/07/08 05:25:09;;;;;;;12.40;7.20;;;;;;;13.29;100.00;98899.94;4155028;28;20076;-72
2023/07/08 05:27:09;;;;;;;13.85;6.60;;;;;;;13.38;100.00;98908.72;4164586;28;20134;-72
2023/07/08 05:29:09;;;;;;;10.70;6.40;;;;;;;13.43;100.00;98897.25;4158460;28;20110;-72
2023/07/08 05:31:10;;;;;;;11.75;7.05;;;;;;;13.46;100.00;98899.25;4161749;28;20044;-72
2023/07/08 05:33:10;;;;;;;14.75;6.93;;;;;;;13.52;100.00;98898.91;4164989;28;20072;-72
2023/07/08 05:35:11;;;;;;;12.70;6.25;;;;;;;13.59;100.00;98901.72;4156912;28;20736;-72
2023/07/08 05:37:12;;;;;;;15.60;7.10;;;;;;;13.66;100.00;98904.56;4155901;28;20569;-72
2023/07/08 05:39:13;;;;;;;12.23;6.78;;;;;;;13.81;100.00;98906.22;4156001;28;20358;-72
2023/07/08 05:41:13;;;;;;;15.52;6.75;;;;;;;13.93;100.00;98900.34;4156278;28;20040;-71
2023/07/08 05:43:13;;;;;;;13.93;7.03;;;;;;;14.10;100.00;98907.16;4158154;28;20552;-72
2023/07/08 05:45:14;;;;;;;19.45;7.07;;;;;;;14.23;100.00;98913.16;4167058;28;20543;-72
2023/07/08 05:47:15;;;;;;;17.13;7.50;;;;;;;14.32;100.00;98899.69;4156422;28;20044;-72
2023/07/08 05:49:15;;;;;;;11.20;6.40;;;;;;;14.41;100.00;98902.09;4158167;28;20049;-72
2023/07/08 05:51:15;;;;;;;10.88;6.25;;;;;;;14.47;100.00;98903.31;4160367;28;20119;-72
2023/07/08 05:53:18;;;;;;;8.40;5.90;;;;;;;14.51;100.00;98901.38;4155030;28;20047;-72
2023/07/08 05:55:19;;;;;;;14.60;7.65;;;;;;;14.54;100.00;98906.94;4154978;28;20049;-72
2023/07/08 05:57:19;;;;;;;9.45;6.20;;;;;;;14.60;100.00;98905.34;4166225;28;20084;-72
2023/07/08 05:59:19;;;;;;;11.07;6.10;;;;;;;14.76;100.00;98910.56;4170394;28;20041;-72
2023/07/08 06:01:20;;;;;;;7.95;6.90;;;;;;;14.91;100.00;98905.03;4170627;28;20033;-72
2023/07/08 06:03:20;;;;;;;11.55;5.97;;;;;;;15.06;100.00;98904.63;4170320;28;20500;-72
2023/07/08 06:05:20;;;;;;;8.43;6.25;;;;;;;15.22;100.00;98904.22;4170119;28;20044;-72
2023/07/08 06:07:21;;;;;;;10.00;6.28;;;;;;;15.37;100.00;98902.22;4166146;28;20420;-72
2023/07/08 06:09:21;;;;;;;9.38;6.55;;;;;;;15.48;100.00;98902.22;4173256;28;20268;-72
2023/07/08 06:11:21;;;;;;;10.32;6.80;;;;;;;15.57;100.00;98897.81;4173121;28;20504;-72
2023/07/08 06:13:22;;;;;;;13.38;6.57;;;;;;;15.65;100.00;98896.63;4161726;28;20469;-72
2023/07/08 06:15:22;;;;;;;8.02;6.13;;;;;;;15.77;100.00;98891.81;4173839;28;20041;-72
2023/07/08 06:17:22;;;;;;;15.05;6.18;;;;;;;15.84;100.00;98892.59;4173270;28;20424;-72
2023/07/08 06:19:23;;;;;;;10.23;6.90;;;;;;;15.96;100.00;98903.31;4173321;28;20106;-72
2023/07/08 06:21:24;;;;;;;9.90;6.07;;;;;;;16.03;100.00;98894.13;4169997;28;20136;-72
2023/07/08 06:23:25;;;;;;;8.82;5.93;;;;;;;16.19;100.00;98900.03;4158002;28;20041;-72
2023/07/08 06:25:25;;;;;;;7.55;5.40;;;;;;;16.27;100.00;98896.00;4171767;28;20045;-72
2023/07/08 06:27:25;;;;;;;10.70;6.05;;;;;;;16.39;100.00;98888.41;4168145;28;20051;-72
2023/07/08 06:29:26;;;;;;;14.25;9.23;;;;;;;16.48;100.00;98886.75;4170337;28;20094;-72
2023/07/08 06:31:28;;;;;;;16.02;11.38;;;;;;;16.61;100.00;98891.84;4168777;28;20331;-72
2023/07/08 06:33:28;;;;;;;22.00;11.02;;;;;;;16.72;100.00;98895.41;4076352;28;20582;-72
2023/07/08 06:35:29;;;;;;;16.98;11.15;;;;;;;16.83;99.99;98890.53;4153159;28;20053;-72
2023/07/08 06:37:29;;;;;;;12.43;10.73;;;;;;;16.96;99.21;98896.41;4152228;28;20139;-72
2023/07/08 06:39:29;;;;;;;12.80;7.97;;;;;;;17.10;97.88;98897.09;4156250;28;20057;-72
2023/07/08 06:41:30;;;;;;;13.48;7.95;;;;;;;17.23;97.50;98891.81;4154038;28;20109;-72
2023/07/08 06:43:30;;;;;;;7.82;6.55;;;;;;;17.35;97.28;98888.50;4146731;28;20600;-72
2023/07/08 06:45:30;;;;;;;8.27;6.25;;;;;;;17.45;95.02;98888.81;4155940;28;20042;-72
2023/07/08 06:47:30;;;;;;;8.18;5.22;;;;;;;17.53;95.02;98888.31;4161780;28;20091;-72
2023/07/08 06:49:31;;;;;;;10.75;6.40;;;;;;;17.65;95.48;98887.03;4160955;28;20045;-72
2023/07/08 06:51:31;;;;;;;8.15;5.88;;;;;;;17.75;95.17;98885.34;4158374;28;20034;-72
2023/07/08 06:53:31;;;;;;;7.85;5.90;;;;;;;17.79;93.87;98892.50;4152495;28;20400;-72
2023/07/08 06:55:32;;;;;;;7.63;5.97;;;;;;;17.85;93.51;98892.81;4153378;28;20203;-72
2023/07/08 06:57:32;;;;;;;6.53;5.50;;;;;;;17.94;94.00;98890.31;4153661;28;20033;-72
2023/07/08 06:59:33;;;;;;;12.25;6.40;;;;;;;18.04;93.10;98878.22;4148688;28;20041;-73
2023/07/08 07:01:34;;;;;;;9.88;5.97;;;;;;;18.15;93.53;98880.88;4155719;28;20037;-72
2023/07/08 07:03:34;;;;;;;6.97;5.13;;;;;;;18.24;93.42;98889.56;4156625;28;21169;-72
2023/07/08 07:05:35;;;;;;;9.63;6.43;;;;;;;18.40;93.71;98886.97;4157754;28;20129;-72
2023/07/08 07:07:35;;;;;;;8.63;5.35;;;;;;;18.51;92.98;98886.81;4153038;28;20053;-72
2023/07/08 07:09:36;;;;;;;10.02;6.20;;;;;;;18.59;92.24;98882.69;4151759;28;20740;-72
2023/07/08 07:11:36;;;;;;;6.90;5.13;;;;;;;18.73;90.81;98892.94;4153942;28;20065;-72
2023/07/08 07:13:36;;;;;;;10.63;5.20;;;;;;;18.85;91.07;98886.72;4148042;28;20140;-72
2023/07/08 07:15:36;;;;;;;9.45;6.05;;;;;;;18.95;90.83;98896.19;4151303;28;20563;-73
2023/07/08 07:17:37;;;;;;;11.25;6.15;;;;;;;19.06;90.82;98882.81;4150048;28;20085;-73
2023/07/08 07:19:37;;;;;;;8.68;4.85;;;;;;;19.15;88.90;98894.28;4161533;28;20109;-73
2023/07/08 07:21:38;;;;;;;8.45;4.88;;;;;;;19.20;88.15;98885.38;4156582;28;20050;-73
2023/07/08 07:23:38;;;;;;;8.18;4.90;;;;;;;19.32;86.63;98883.97;4157607;28;20030;-73
2023/07/08 07:25:38;;;;;;;8.80;5.07;;;;;;;19.42;87.02;98888.59;4157302;28;20460;-73
2023/07/08 07:27:39;;;;;;;7.55;5.00;;;;;;;19.51;85.94;98886.03;4156595;28;20152;-73
2023/07/08 07:29:46;;;;;;;7.72;5.30;;;;;;;19.62;88.22;98881.06;4159972;28;20143;-72
2023/07/08 07:31:47;;;;;;;9.50;6.38;;;;;;;19.82;86.38;98874.66;4156450;28;20273;-73
2023/07/08 07:33:47;;;;;;;8.73;5.47;;;;;;;20.00;85.10;98883.53;4158647;28;20075;-73
2023/07/08 07:35:47;;;;;;;6.05;5.13;;;;;;;20.13;84.09;98887.28;4162183;28;20512;-73
2023/07/08 07:37:48;;;;;;;5.97;4.70;;;;;;;20.24;84.45;98875.03;4160603;28;20357;-72
2023/07/08 07:39:48;;;;;;;10.45;5.43;;;;;;;20.37;82.03;98873.94;4159949;28;20222;-73
2023/07/08 07:41:49;;;;;;;7.43;5.13;;;;;;;20.47;82.44;98875.75;4159245;28;20058;-73
2023/07/08 07:43:49;;;;;;;9.27;5.50;;;;;;;20.52;81.74;98873.63;4159283;28;20045;-73
2023/07/08 07:45:52;;;;;;;8.95;5.50;;;;;;;20.74;79.99;98880.38;4161977;28;20490;-73
2023/07/08 07:47:53;;;;;;;6.90;4.88;;;;;;;20.87;79.29;98866.44;4162331;28;20128;-73
2023/07/08 07:49:53;;;;;;;9.25;5.15;;;;;;;21.01;78.97;98868.88;4162117;28;20120;-73
2023/07/08 07:51:53;;;;;;;6.35;4.57;;;;;;;21.07;79.92;98869.94;4163153;28;20136;-73
2023/07/08 07:53:54;;;;;;;6.03;4.95;;;;;;;21.23;77.01;98863.50;4159342;28;20132;-73
2023/07/08 07:55:59;;;;;;;5.68;4.88;;;;;;;21.42;75.47;98868.25;4159789;28;20037;-73
2023/07/08 07:58:00;;;;;;;8.35;7.43;;;;;;;21.64;75.39;98868.50;4162462;28;20052;-73
2023/07/08 08:00:00;;;;;;;6.20;5.32;;;;;;;21.76;74.48;98862.16;4163141;28;20416;-73
2023/07/08 08:02:00;;;;;;;5.32;4.55;;;;;;;21.87;72.56;98865.44;4164520;28;20038;-73
2023/07/08 08:04:01;;;;;;;5.40;4.47;;;;;;;22.05;70.62;98867.75;4160344;28;20107;-73
2023/07/08 08:06:01;;;;;;;6.10;5.10;;;;;;;22.18;70.76;98862.19;4158304;28;20042;-73
2023/07/08 08:08:03;;;;;;;5.60;4.97;;;;;;;22.28;72.23;98872.38;4159935;28;20013;-74
2023/07/08 08:10:04;;;;;;;;;;;;;;;22.40;71.69;98868.75;4160486;28;20037;-73
2023/07/08 08:12:04;;;;;;;7.55;5.82;;;;;;;22.62;70.65;98868.13;4157326;28;20359;-73
2023/07/08 08:14:05;;;;;;;6.28;4.85;;;;;;;22.75;69.61;98870.94;4162047;28;20036;-73
2023/07/08 08:16:05;;;;;;;6.30;5.38;;;;;;;22.91;69.91;98866.00;4160066;28;20044;-73
2023/07/08 08:18:05;;;;;;;5.95;5.03;;;;;;;23.08;69.35;98868.69;4157170;28;20075;-73
2023/07/08 08:20:06;;;;;;;6.30;4.85;;;;;;;23.17;67.45;98857.50;4155137;28;20495;-73
2023/07/08 08:22:07;;;;;;;7.50;4.25;;;;;;;23.25;67.25;98876.59;4158395;28;20029;-73
2023/07/08 08:24:07;;;;;;;4.68;4.28;;;;;;;23.36;66.95;98878.25;4158772;28;20380;-73
2023/07/08 08:26:08;;;;;;;5.38;4.75;;;;;;;23.42;66.56;98874.41;4158445;28;20065;-73
2023/07/08 08:28:08;;;;;;;6.47;4.47;;;;;;;23.67;66.34;98872.78;4156853;28;20038;-73
2023/07/08 08:30:09;;;;;;;5.25;4.53;;;;;;;23.81;65.46;98869.44;4156784;28;20032;-73
2023/07/08 08:32:09;;;;;;;18.77;5.10;;;;;;;24.02;62.49;98876.38;4161810;28;20136;-73
2023/07/08 08:34:09;;;;;;;6.00;4.70;;;;;;;24.12;62.37;98875.19;4160551;28;20094;-73
2023/07/08 08:36:10;;;;;;;5.68;4.80;;;;;;;24.23;61.53;98874.78;4160124;28;20373;-73
2023/07/08 08:38:10;;;;;;;5.18;4.50;;;;;;;24.38;61.34;98867.34;4157295;28;20486;-73
2023/07/08 08:40:17;;;;;;;5.97;4.85;;;;;;;24.49;61.68;98873.38;4160338;28;20014;-73
2023/07/08 08:42:43;;;;;;;8.70;5.10;;;;;;;24.67;60.62;98863.44;4158318;28;20555;-73
2023/07/08 08:44:45;;;;;;;5.80;4.53;;;;;;;24.76;61.58;98861.44;4148236;28;20053;-73
2023/07/08 08:46:52;;;;;;;5.18;4.13;;;;;;;24.90;60.03;98858.00;4161890;28;20038;-73
2023/07/08 08:49:22;;;;;;;6.07;4.53;;;;;;;25.05;59.19;98855.41;4160189;28;20048;-73
2023/07/08 08:51:27;;;;;;;7.82;4.82;;;;;;;25.14;57.75;98857.50;4159995;28;20056;-73
2023/07/08 08:53:27;;;;;;;6.82;4.35;;;;;;;25.27;59.57;98863.03;4154146;28;20485;-73
2023/07/08 08:55:28;;;;;;;6.05;4.70;;;;;;;25.38;57.77;98863.38;4160316;28;20102;-73
2023/07/08 08:57:41;;;;;;;8.52;4.40;;;;;;;25.51;56.93;98864.03;4160294;28;20037;-73
2023/07/08 08:59:45;;;;;;;7.03;4.72;;;;;;;25.57;56.69;98856.47;4162933;28;20406;-73
2023/07/08 09:01:47;;;;;;;8.23;5.00;;;;;;;25.60;58.09;98857.56;4161190;28;20750;-73
2023/07/08 09:03:56;;;;;;;6.20;4.28;;;;;;;25.64;58.13;98847.66;4160067;28;20029;-73
2023/07/08 09:05:59;;;;;;;6.85;4.63;;;;;;;25.72;58.45;98854.59;4153592;28;20460;-73
2023/07/08 09:08:11;;;;;;;7.32;4.45;;;;;;;25.73;56.77;98850.53;4159380;28;20505;-73
2023/07/08 09:10:31;;;;;;;;;;;;;;;25.64;55.13;98852.53;4161429;28;20045;-74
2023/07/08 09:12:33;;;;;;;14.38;5.00;;;;;;;25.54;56.09;98848.13;4160800;28;19920;-73
2023/07/08 09:14:36;;;;;;;9.45;4.05;;;;;;;25.53;56.71;98861.50;4159408;28;20490;-74
2023/07/08 09:16:42;;;;;;;7.18;4.30;;;;;;;25.61;54.94;98854.28;4164498;28;20095;-73
2023/07/08 09:18:54;;;;;;;6.88;4.40;;;;;;;25.74;53.64;98854.16;4156009;28;20053;-74
2023/07/08 09:20:56;;;;;;;5.93;4.40;;;;;;;26.02;53.25;98858.53;4156019;28;20041;-73
2023/07/08 09:23:21;;;;;;;6.78;4.57;;;;;;;26.22;55.47;98855.19;4164966;28;20116;-74
2023/07/08 09:25:35;;;;;;;11.45;4.82;;;;;;;26.36;53.80;98838.78;4155975;28;20056;-74
2023/07/08 09:27:35;;;;;;;6.60;4.45;;;;;;;26.44;52.97;98843.69;4156057;28;20389;-73